METAR Data
IDs: Format: Raw Decoded Include TAF

Data at: 0551 UTC 14 Dec 2018

METAR for:VTUK (Khon Kaen Arpt, --, TH)
Text:VTUK 140500Z 05009KT 360V100 CAVOK 29/15 Q1018 NOSIG
Temperature: 29.0°C ( 84°F)
Dewpoint: 15.0°C ( 59°F) [RH = 43%]
Pressure (altimeter):30.06 inches Hg (1018.0 mb)
Winds:from the NE (50 degrees) at 10 MPH (9 knots; 4.6 m/s)
Visibility:6 or more sm (10+ km)
Ceiling:ceiling and visibility are OK
Clouds:unknown
Text:VTUK 140300Z 04009KT 350V070 9999 FEW035 SCT100 26/15 Q1020 NOSIG
Temperature: 26.0°C ( 79°F)
Dewpoint: 15.0°C ( 59°F) [RH = 51%]
Pressure (altimeter):30.12 inches Hg (1020.0 mb)
Winds:from the NE (40 degrees) at 10 MPH (9 knots; 4.6 m/s)
Visibility:6 or more sm (10+ km)
Ceiling:at least 12,000 feet AGL
Clouds: few clouds at 3500 feet AGL, scattered clouds at 10000 feet AGL

METAR for:VTUD (Udon Thani Arpt, --, TH)
Text:VTUD 140500Z 06007KT 030V110 CAVOK 26/14 Q1019 NOSIG
Temperature: 26.0°C ( 79°F)
Dewpoint: 14.0°C ( 57°F) [RH = 48%]
Pressure (altimeter):30.09 inches Hg (1019.0 mb)
Winds:from the ENE (60 degrees) at 8 MPH (7 knots; 3.6 m/s)
Visibility:6 or more sm (10+ km)
Ceiling:ceiling and visibility are OK
Clouds:unknown
Text:VTUD 140400Z 05006KT 350V110 CAVOK 25/14 Q1020 NOSIG
Temperature: 25.0°C ( 77°F)
Dewpoint: 14.0°C ( 57°F) [RH = 50%]
Pressure (altimeter):30.12 inches Hg (1020.0 mb)
Winds:from the NE (50 degrees) at 7 MPH (6 knots; 3.1 m/s)
Visibility:6 or more sm (10+ km)
Ceiling:ceiling and visibility are OK
Clouds:unknown
Text:VTUD 140300Z 05005KT 330V130 CAVOK 23/15 Q1021 NOSIG
Temperature: 23.0°C ( 73°F)
Dewpoint: 15.0°C ( 59°F) [RH = 61%]
Pressure (altimeter):30.15 inches Hg (1021.0 mb)
Winds:from the NE (50 degrees) at 6 MPH (5 knots; 2.6 m/s)
Visibility:6 or more sm (10+ km)
Ceiling:ceiling and visibility are OK
Clouds:unknown

METAR for:VTUL (Loei Arpt, --, TH)
Text:VTUL 140500Z VRB04KT 9999 FEW025 SCT060 26/17 Q1019 NOSIG
Temperature: 26.0°C ( 79°F)
Dewpoint: 17.0°C ( 63°F) [RH = 58%]
Pressure (altimeter):30.09 inches Hg (1019.0 mb)
Winds:variable direction winds at 5 MPH (4 knots; 2.1 m/s)
Visibility:6 or more sm (10+ km)
Ceiling:at least 12,000 feet AGL
Clouds: few clouds at 2500 feet AGL, scattered clouds at 6000 feet AGL
Text:VTUL 140400Z VRB03KT 9999 FEW025 24/17 Q1020 NOSIG
Temperature: 24.0°C ( 75°F)
Dewpoint: 17.0°C ( 63°F) [RH = 65%]
Pressure (altimeter):30.12 inches Hg (1020.0 mb)
Winds:variable direction winds at 3 MPH (3 knots; 1.5 m/s)
Visibility:6 or more sm (10+ km)
Ceiling:at least 12,000 feet AGL
Clouds: few clouds at 2500 feet AGL
Text:VTUL 140300Z VRB04KT 9999 FEW025 23/16 Q1021 NOSIG
Temperature: 23.0°C ( 73°F)
Dewpoint: 16.0°C ( 61°F) [RH = 65%]
Pressure (altimeter):30.15 inches Hg (1021.0 mb)
Winds:variable direction winds at 5 MPH (4 knots; 2.1 m/s)
Visibility:6 or more sm (10+ km)
Ceiling:at least 12,000 feet AGL
Clouds: few clouds at 2500 feet AGL

METAR for:VTUI (Sakon Nakhon Arpt, --, TH)
Text:VTUI 140500Z 08009KT 040V120 CAVOK 27/15 Q1019 NOSIG
Temperature: 27.0°C ( 81°F)
Dewpoint: 15.0°C ( 59°F) [RH = 48%]
Pressure (altimeter):30.09 inches Hg (1019.0 mb)
Winds:from the E (80 degrees) at 10 MPH (9 knots; 4.6 m/s)
Visibility:6 or more sm (10+ km)
Ceiling:ceiling and visibility are OK
Clouds:unknown
Text:VTUI 140400Z 12005KT 070V170 CAVOK 25/15 Q1020 NOSIG
Temperature: 25.0°C ( 77°F)
Dewpoint: 15.0°C ( 59°F) [RH = 54%]
Pressure (altimeter):30.12 inches Hg (1020.0 mb)
Winds:from the ESE (120 degrees) at 6 MPH (5 knots; 2.6 m/s)
Visibility:6 or more sm (10+ km)
Ceiling:ceiling and visibility are OK
Clouds:unknown
Text:VTUI 140300Z VRB06KT CAVOK 23/14 Q1021 NOSIG
Temperature: 23.0°C ( 73°F)
Dewpoint: 14.0°C ( 57°F) [RH = 57%]
Pressure (altimeter):30.15 inches Hg (1021.0 mb)
Winds:variable direction winds at 7 MPH (6 knots; 3.1 m/s)
Visibility:6 or more sm (10+ km)
Ceiling:ceiling and visibility are OK
Clouds:unknown

METAR for:VTUW (Nakhon Phanom Arpt, --, TH)
Text:VTUW 140500Z 09010KT 050V120 CAVOK 27/15 Q1019 NOSIG
Temperature: 27.0°C ( 81°F)
Dewpoint: 15.0°C ( 59°F) [RH = 48%]
Pressure (altimeter):30.09 inches Hg (1019.0 mb)
Winds:from the E (90 degrees) at 12 MPH (10 knots; 5.1 m/s)
Visibility:6 or more sm (10+ km)
Ceiling:ceiling and visibility are OK
Clouds:unknown
Text:VTUW 140400Z 09007KT 060V130 CAVOK 25/15 Q1020 NOSIG
Temperature: 25.0°C ( 77°F)
Dewpoint: 15.0°C ( 59°F) [RH = 54%]
Pressure (altimeter):30.12 inches Hg (1020.0 mb)
Winds:from the E (90 degrees) at 8 MPH (7 knots; 3.6 m/s)
Visibility:6 or more sm (10+ km)
Ceiling:ceiling and visibility are OK
Clouds:unknown
Text:VTUW 140300Z 11006KT 050V160 CAVOK 24/15 Q1021 NOSIG
Temperature: 24.0°C ( 75°F)
Dewpoint: 15.0°C ( 59°F) [RH = 57%]
Pressure (altimeter):30.15 inches Hg (1021.0 mb)
Winds:from the ESE (110 degrees) at 7 MPH (6 knots; 3.1 m/s)
Visibility:6 or more sm (10+ km)
Ceiling:ceiling and visibility are OK
Clouds:unknown

METAR for:VTBS (Bangkok/Suvarnabhumi, --, TH)
Text:VTBS 140530Z 05010KT 010V080 9999 FEW030 29/19 Q1014 NOSIG
Temperature: 29.0°C ( 84°F)
Dewpoint: 19.0°C ( 66°F) [RH = 55%]
Pressure (altimeter):29.94 inches Hg (1014.0 mb)
Winds:from the NE (50 degrees) at 12 MPH (10 knots; 5.1 m/s)
Visibility:6 or more sm (10+ km)
Ceiling:at least 12,000 feet AGL
Clouds: few clouds at 3000 feet AGL
Text:VTBS 140500Z 05012KT 9999 FEW030 28/18 Q1015 NOSIG
Temperature: 28.0°C ( 82°F)
Dewpoint: 18.0°C ( 64°F) [RH = 55%]
Pressure (altimeter):29.97 inches Hg (1015.0 mb)
Winds:from the NE (50 degrees) at 14 MPH (12 knots; 6.2 m/s)
Visibility:6 or more sm (10+ km)
Ceiling:at least 12,000 feet AGL
Clouds: few clouds at 3000 feet AGL
Text:VTBS 140430Z 05011G21KT 010V090 9999 FEW030 28/18 Q1016 NOSIG
Temperature: 28.0°C ( 82°F)
Dewpoint: 18.0°C ( 64°F) [RH = 55%]
Pressure (altimeter):30.00 inches Hg (1016.0 mb)
Winds:from the NE (50 degrees) at 13 MPH (11 knots; 5.7 m/s) gusting to 24 MPH (21 knots; 10.8 m/s)
Visibility:6 or more sm (10+ km)
Ceiling:at least 12,000 feet AGL
Clouds: few clouds at 3000 feet AGL
Text:VTBS 140400Z 04011KT 020V080 9999 FEW030 28/18 Q1016 NOSIG
Temperature: 28.0°C ( 82°F)
Dewpoint: 18.0°C ( 64°F) [RH = 55%]
Pressure (altimeter):30.00 inches Hg (1016.0 mb)
Winds:from the NE (40 degrees) at 13 MPH (11 knots; 5.7 m/s)
Visibility:6 or more sm (10+ km)
Ceiling:at least 12,000 feet AGL
Clouds: few clouds at 3000 feet AGL
Text:VTBS 140330Z 07009KT 040V100 9999 FEW030 27/18 Q1016 NOSIG
Temperature: 27.0°C ( 81°F)
Dewpoint: 18.0°C ( 64°F) [RH = 58%]
Pressure (altimeter):30.00 inches Hg (1016.0 mb)
Winds:from the ENE (70 degrees) at 10 MPH (9 knots; 4.6 m/s)
Visibility:6 or more sm (10+ km)
Ceiling:at least 12,000 feet AGL
Clouds: few clouds at 3000 feet AGL
Text:VTBS 140300Z 07011G22KT 040V100 9999 FEW030 26/17 Q1016 NOSIG
Temperature: 26.0°C ( 79°F)
Dewpoint: 17.0°C ( 63°F) [RH = 58%]
Pressure (altimeter):30.00 inches Hg (1016.0 mb)
Winds:from the ENE (70 degrees) at 13 MPH (11 knots; 5.7 m/s) gusting to 25 MPH (22 knots; 11.3 m/s)
Visibility:6 or more sm (10+ km)
Ceiling:at least 12,000 feet AGL
Clouds: few clouds at 3000 feet AGL

METAR for:VTBD (Bangkok Intl, --, TH)
Text:VTBD 140530Z 01006KT 300V070 9999 FEW030 30/20 Q1015 NOSIG
Temperature: 30.0°C ( 86°F)
Dewpoint: 20.0°C ( 68°F) [RH = 55%]
Pressure (altimeter):29.97 inches Hg (1015.0 mb)
Winds:from the N (10 degrees) at 7 MPH (6 knots; 3.1 m/s)
Visibility:6 or more sm (10+ km)
Ceiling:at least 12,000 feet AGL
Clouds: few clouds at 3000 feet AGL
Text:VTBD 140500Z 31004KT 9999 FEW030 29/19 Q1016 NOSIG
Temperature: 29.0°C ( 84°F)
Dewpoint: 19.0°C ( 66°F) [RH = 55%]
Pressure (altimeter):30.00 inches Hg (1016.0 mb)
Winds:from the NW (310 degrees) at 5 MPH (4 knots; 2.1 m/s)
Visibility:6 or more sm (10+ km)
Ceiling:at least 12,000 feet AGL
Clouds: few clouds at 3000 feet AGL
Text:VTBD 140430Z 00000KT 9999 FEW030 29/19 Q1016 NOSIG
Temperature: 29.0°C ( 84°F)
Dewpoint: 19.0°C ( 66°F) [RH = 55%]
Pressure (altimeter):30.00 inches Hg (1016.0 mb)
Winds:calm
Visibility:6 or more sm (10+ km)
Ceiling:at least 12,000 feet AGL
Clouds: few clouds at 3000 feet AGL
Text:VTBD 140400Z 03002KT 9999 FEW030 29/19 Q1016 NOSIG
Temperature: 29.0°C ( 84°F)
Dewpoint: 19.0°C ( 66°F) [RH = 55%]
Pressure (altimeter):30.00 inches Hg (1016.0 mb)
Winds:from the NNE (30 degrees) at 2 MPH (2 knots; 1.0 m/s)
Visibility:6 or more sm (10+ km)
Ceiling:at least 12,000 feet AGL
Clouds: few clouds at 3000 feet AGL
Text:VTBD 140330Z 32003KT 9999 FEW030 28/19 Q1017 NOSIG
Temperature: 28.0°C ( 82°F)
Dewpoint: 19.0°C ( 66°F) [RH = 58%]
Pressure (altimeter):30.03 inches Hg (1017.0 mb)
Winds:from the NW (320 degrees) at 3 MPH (3 knots; 1.5 m/s)
Visibility:6 or more sm (10+ km)
Ceiling:at least 12,000 feet AGL
Clouds: few clouds at 3000 feet AGL
Text:VTBD 140300Z 15003KT 090V230 9999 FEW030 27/19 Q1017 NOSIG
Temperature: 27.0°C ( 81°F)
Dewpoint: 19.0°C ( 66°F) [RH = 62%]
Pressure (altimeter):30.03 inches Hg (1017.0 mb)
Winds:from the SSE (150 degrees) at 3 MPH (3 knots; 1.5 m/s)
Visibility:6 or more sm (10+ km)
Ceiling:at least 12,000 feet AGL
Clouds: few clouds at 3000 feet AGL